createdAt,value
2018-11-02T00:00:51.734Z,100618.80
2018-11-02T00:03:20.740Z,100621.27
2018-11-02T00:05:49.765Z,100621.41
2018-11-02T00:08:18.774Z,100629.54
2018-11-02T00:10:47.756Z,100625.83
2018-11-02T00:13:16.838Z,100628.68
2018-11-02T00:15:45.842Z,100633.42
2018-11-02T00:18:14.732Z,100637.56
2018-11-02T00:20:43.755Z,100636.78
2018-11-02T00:23:12.698Z,100631.14
2018-11-02T00:25:41.723Z,100635.53
2018-11-02T00:28:10.624Z,100638.74
2018-11-02T00:30:39.600Z,100638.62
2018-11-02T00:33:10.669Z,100650.37
2018-11-02T00:35:39.649Z,100644.88
2018-11-02T00:38:08.674Z,100647.95
2018-11-02T00:40:37.606Z,100647.02
2018-11-02T00:43:06.693Z,100649.70
2018-11-02T00:45:35.624Z,100652.77
2018-11-02T00:48:04.587Z,100650.27
2018-11-02T00:50:33.634Z,100662.45
2018-11-02T00:53:02.559Z,100664.88
2018-11-02T00:55:31.534Z,100659.23
2018-11-02T00:58:00.591Z,100654.83
2018-11-02T01:00:29.618Z,100663.30
2018-11-02T01:02:58.633Z,100668.80
2018-11-02T01:05:27.851Z,100664.59
2018-11-02T01:08:01.851Z,100667.19
2018-11-02T01:10:28.840Z,100677.17
2018-11-02T01:12:57.837Z,100669.42
2018-11-02T01:15:26.916Z,100683.88
2018-11-02T01:17:57.978Z,100679.91
2018-11-02T01:20:24.814Z,100687.77
2018-11-02T01:22:53.877Z,100683.23
2018-11-02T01:25:22.860Z,100698.13
2018-11-02T01:27:51.853Z,100706.25
2018-11-02T01:30:20.880Z,100700.63
2018-11-02T01:32:49.936Z,100711.43
2018-11-02T01:35:21.459Z,100704.66
2018-11-02T01:37:52.858Z,100705.15
2018-11-02T01:40:21.796Z,100701.94
2018-11-02T01:42:51.005Z,100704.58
2018-11-02T01:45:27.884Z,100702.86
2018-11-02T01:47:55.368Z,100703.80
2018-11-02T01:50:24.364Z,100707.86
2018-11-02T01:52:53.596Z,100710.81
2018-11-02T01:55:22.581Z,100712.69
2018-11-02T01:57:53.782Z,100706.86
2018-11-02T02:00:22.763Z,100711.95
2018-11-02T02:02:51.729Z,100708.44
2018-11-02T02:05:20.730Z,100715.78
2018-11-02T02:07:52.319Z,100720.82
2018-11-02T02:10:24.098Z,100729.22
2018-11-02T02:12:59.966Z,100729.38
2018-11-02T02:15:24.949Z,100740.98
2018-11-02T02:17:54.038Z,100739.62
2018-11-02T02:20:23.070Z,100757.30
2018-11-02T02:22:52.163Z,100758.16
2018-11-02T02:25:21.205Z,100777.28
2018-11-02T02:27:50.247Z,100774.02
2018-11-02T02:30:19.233Z,100780.14
2018-11-02T02:32:48.187Z,100781.67
2018-11-02T02:35:17.228Z,100778.97
2018-11-02T02:37:46.094Z,100780.23
2018-11-02T02:40:15.060Z,100793.14
2018-11-02T02:42:43.975Z,100792.16
2018-11-02T02:45:15.201Z,100801.42
2018-11-02T02:47:42.499Z,100806.84
2018-11-02T02:50:12.783Z,100813.84
2018-11-02T02:52:44.549Z,100811.67
2018-11-02T02:55:11.437Z,100826.60
2018-11-02T02:57:40.370Z,100835.79
2018-11-02T03:00:11.586Z,100844.74
2018-11-02T03:02:40.590Z,100856.44
2018-11-02T03:05:10.054Z,100857.58
2018-11-02T03:07:39.590Z,100870.64
2018-11-02T03:10:08.987Z,100871.92
2018-11-02T03:12:38.271Z,100878.22
2018-11-02T03:15:07.576Z,100885.58
2018-11-02T03:17:37.064Z,100884.86
2018-11-02T03:20:07.589Z,100887.93
2018-11-02T03:22:36.663Z,100892.36
2018-11-02T03:25:06.577Z,100896.07
2018-11-02T03:27:38.119Z,100884.05
2018-11-02T03:30:08.524Z,100905.34
2018-11-02T03:32:37.479Z,100909.62
2018-11-02T03:35:06.445Z,100918.77
2018-11-02T03:37:35.359Z,100926.45
2018-11-02T03:40:04.341Z,100942.17
2018-11-02T03:42:33.338Z,100949.49
2018-11-02T03:45:07.135Z,100954.88
2018-11-02T03:47:31.354Z,100949.86
2018-11-02T03:50:00.331Z,100967.22
2018-11-02T03:52:29.229Z,100970.06
2018-11-02T03:54:58.665Z,100977.47
2018-11-02T03:57:27.609Z,100980.55
2018-11-02T03:59:56.571Z,100986.67
2018-11-02T04:02:25.567Z,100991.60
2018-11-02T04:04:54.577Z,100997.27
2018-11-02T04:07:25.632Z,101003.01
2018-11-02T04:09:52.680Z,101013.16
2018-11-02T04:12:26.164Z,101018.49
2018-11-02T04:14:52.979Z,101030.90
2018-11-02T04:17:23.688Z,101044.58
2018-11-02T04:19:50.988Z,101054.27
2018-11-02T04:22:19.901Z,101056.38
2018-11-02T04:24:48.904Z,101063.23
2018-11-02T04:27:17.804Z,101061.80
2018-11-02T04:29:46.735Z,101069.64
2018-11-02T04:32:15.638Z,101076.64
2018-11-02T04:34:44.618Z,101084.15
2018-11-02T04:37:13.632Z,101086.47
2018-11-02T04:39:42.633Z,101084.78
2018-11-02T04:42:11.569Z,101095.63
2018-11-02T04:44:40.564Z,101094.56
2018-11-02T04:47:09.587Z,101096.91
2018-11-02T04:49:38.467Z,101102.69
2018-11-02T04:52:07.494Z,101112.05
2018-11-02T04:54:36.532Z,101121.63
2018-11-02T04:57:08.043Z,101122.63
2018-11-02T04:59:37.174Z,101120.81
2018-11-02T05:02:06.268Z,101121.92
2018-11-02T05:04:35.235Z,101138.56
2018-11-02T05:07:04.288Z,101139.25
2018-11-02T05:09:33.261Z,101139.25
2018-11-02T05:12:02.201Z,101140.66
2018-11-02T05:14:31.188Z,101156.19
2018-11-02T05:17:00.157Z,101167.47
2018-11-02T05:19:29.190Z,101169.67
2018-11-02T05:21:58.225Z,101169.41
2018-11-02T05:24:27.340Z,101174.70
2018-11-02T05:26:56.268Z,101181.60
2018-11-02T05:29:25.296Z,101184.33
2018-11-02T05:31:54.314Z,101191.50
2018-11-02T05:34:23.317Z,101203.29
2018-11-02T05:36:52.310Z,101208.00
2018-11-02T05:39:21.358Z,101213.80
2018-11-02T05:41:50.348Z,101219.34
2018-11-02T05:44:19.308Z,101225.74
2018-11-02T05:46:48.304Z,101233.29
2018-11-02T05:49:17.334Z,101238.59
2018-11-02T05:51:46.303Z,101243.35
2018-11-02T05:54:15.367Z,101252.19
2018-11-02T05:56:44.260Z,101260.01
2018-11-02T05:59:13.363Z,101264.56
2018-11-02T06:01:45.197Z,101268.28
2018-11-02T06:04:14.725Z,101277.86
2018-11-02T06:06:43.727Z,101290.42
2018-11-02T06:09:12.897Z,101293.41
2018-11-02T06:11:46.337Z,101305.70
2018-11-02T06:14:15.436Z,101312.85
2018-11-02T06:16:44.469Z,101320.00
2018-11-02T06:19:13.312Z,101319.89
2018-11-02T06:21:44.696Z,101319.64
2018-11-02T06:24:13.761Z,101328.79
2018-11-02T06:26:42.671Z,101327.25
2018-11-02T06:29:13.112Z,101332.20
2018-11-02T06:31:42.896Z,101342.28
2018-11-02T06:34:11.871Z,101339.81
2018-11-02T06:36:41.127Z,101352.13
2018-11-02T06:39:10.703Z,101361.47
2018-11-02T06:41:39.949Z,101368.10
2018-11-02T06:44:08.852Z,101376.13
2018-11-02T06:46:42.826Z,101385.98
2018-11-02T06:49:11.835Z,101392.09
2018-11-02T06:51:40.946Z,101397.62
2018-11-02T06:54:12.730Z,101393.58
2018-11-02T06:56:41.792Z,101404.25
2018-11-02T06:59:11.077Z,101415.72
2018-11-02T07:01:40.090Z,101414.86
2018-11-02T07:04:11.184Z,101413.66
2018-11-02T07:06:42.683Z,101422.13
2018-11-02T07:09:12.143Z,101424.28
2018-11-02T07:11:41.223Z,101420.55
2018-11-02T07:14:12.733Z,101432.12
2018-11-02T07:16:41.741Z,101435.34
2018-11-02T07:19:10.843Z,101437.06
2018-11-02T07:21:40.168Z,101453.83
2018-11-02T07:24:09.295Z,101462.66
2018-11-02T07:26:42.538Z,101459.95
2018-11-02T07:29:11.565Z,101469.68
2018-11-02T07:31:40.570Z,101479.53
2018-11-02T07:34:09.735Z,101482.11
2018-11-02T07:36:38.715Z,101491.22
2018-11-02T07:39:09.314Z,101499.95
2018-11-02T07:41:38.384Z,101501.08
2018-11-02T07:44:07.669Z,101501.08
2018-11-02T07:46:36.703Z,101504.27
2018-11-02T07:49:05.702Z,101498.97
2018-11-02T07:51:34.768Z,101514.25
2018-11-02T07:54:03.804Z,101517.70
2018-11-02T07:56:35.361Z,101525.83
2018-11-02T07:59:04.401Z,101528.87
2018-11-02T08:01:35.558Z,101526.05
2018-11-02T08:04:04.892Z,101530.75
2018-11-02T08:06:33.885Z,101528.91
2018-11-02T08:09:05.327Z,101525.65
2018-11-02T08:11:33.996Z,101545.38
2018-11-02T08:14:00.892Z,101545.30
2018-11-02T08:16:34.338Z,101551.20
2018-11-02T08:19:06.627Z,101551.61
2018-11-02T08:21:37.323Z,101557.86
2018-11-02T08:24:08.911Z,101564.20
2018-11-02T08:26:37.836Z,101574.40
2018-11-02T08:29:12.344Z,101576.48
2018-11-02T08:31:38.867Z,101585.67
2018-11-02T08:34:07.972Z,101587.17
2018-11-02T08:36:37.028Z,101590.75
2018-11-02T08:39:07.840Z,101591.72
2018-11-02T08:41:38.772Z,101598.23
2018-11-02T08:44:10.021Z,101601.02
2018-11-02T08:46:39.297Z,101608.01
2018-11-02T08:49:08.180Z,101603.71
2018-11-02T08:51:37.262Z,101619.38
2018-11-02T08:54:06.202Z,101616.81
2018-11-02T08:56:35.245Z,101618.16
2018-11-02T08:59:04.188Z,101619.28
2018-11-02T09:01:35.536Z,101619.41
2018-11-02T09:04:04.527Z,101625.67
2018-11-02T09:06:33.435Z,101621.37
2018-11-02T09:09:02.438Z,101633.34
2018-11-02T09:11:31.372Z,101629.63
2018-11-02T09:14:00.312Z,101634.70
2018-11-02T09:16:29.218Z,101638.89
2018-11-02T09:18:58.197Z,101641.71
2018-11-02T09:21:27.749Z,101652.20
2018-11-02T09:23:56.464Z,101650.72
2018-11-02T09:26:25.887Z,101651.08
2018-11-02T09:28:55.149Z,101655.04
2018-11-02T09:31:24.118Z,101666.85
2018-11-02T09:33:53.102Z,101661.48
2018-11-02T09:36:21.963Z,101663.27
2018-11-02T09:38:50.918Z,101657.09
2018-11-02T09:41:19.860Z,101675.42
2018-11-02T09:43:48.837Z,101660.99
2018-11-02T09:46:17.809Z,101664.91
2018-11-02T09:48:46.802Z,101669.86
2018-11-02T09:51:15.806Z,101664.39
2018-11-02T09:53:44.729Z,101672.44
2018-11-02T09:56:13.636Z,101685.52
2018-11-02T09:58:42.583Z,101688.23
2018-11-02T10:01:11.645Z,101691.27
2018-11-02T10:03:40.634Z,101683.85
2018-11-02T10:06:12.046Z,101693.64
2018-11-02T10:08:38.539Z,101689.03
2018-11-02T10:11:09.037Z,101688.23
2018-11-02T10:13:36.754Z,101691.02
2018-11-02T10:16:06.829Z,101689.58
2018-11-02T10:18:35.878Z,101692.44
2018-11-02T10:21:05.245Z,101699.97
2018-11-02T10:23:34.175Z,101702.42
2018-11-02T10:26:03.169Z,101702.67
2018-11-02T10:28:32.204Z,101702.38
2018-11-02T10:31:01.156Z,101696.39
2018-11-02T10:33:30.167Z,101705.69
2018-11-02T10:35:59.215Z,101703.66
2018-11-02T10:38:28.528Z,101712.92
2018-11-02T10:41:01.033Z,101708.86
2018-11-02T10:43:31.069Z,101705.17
2018-11-02T10:46:01.152Z,101713.03
2018-11-02T10:48:30.665Z,101717.53
2018-11-02T10:50:59.798Z,101720.18
2018-11-02T10:53:28.637Z,101719.92
2018-11-02T10:55:59.839Z,101725.83
2018-11-02T10:58:28.873Z,101733.87
2018-11-02T11:01:15.270Z,101735.25
2018-11-02T11:03:44.251Z,101739.68
2018-11-02T11:06:13.244Z,101739.75
2018-11-02T11:08:42.231Z,101752.69
2018-11-02T11:11:11.229Z,101745.00
2018-11-02T11:13:40.630Z,101749.17
2018-11-02T11:16:09.124Z,101751.29
2018-11-02T11:18:38.167Z,101745.20
2018-11-02T11:21:09.750Z,101740.89
2018-11-02T11:23:36.311Z,101740.73
2018-11-02T11:26:05.521Z,101750.36
2018-11-02T11:28:39.458Z,101741.59
2018-11-02T11:31:03.597Z,101749.14
2018-11-02T11:33:32.526Z,101753.33
2018-11-02T11:36:01.479Z,101764.58
2018-11-02T11:38:30.426Z,101765.35
2018-11-02T11:41:00.268Z,101770.74
2018-11-02T11:43:29.079Z,101779.44
2018-11-02T11:45:58.122Z,101774.86
2018-11-02T11:48:27.042Z,101780.71
2018-11-02T11:50:55.925Z,101779.48
2018-11-02T11:53:27.742Z,101784.58
2018-11-02T11:55:56.767Z,101791.41
2018-11-02T11:58:25.645Z,101788.55
2018-11-02T12:00:54.575Z,101789.13
2018-11-02T12:03:23.603Z,101794.28
2018-11-02T12:05:52.472Z,101794.38
2018-11-02T12:08:23.913Z,101793.51
2018-11-02T12:10:52.880Z,101796.22
2018-11-02T12:13:21.826Z,101797.02
2018-11-02T12:15:50.922Z,101795.82
2018-11-02T12:18:19.859Z,101796.87
2018-11-02T12:20:48.834Z,101799.59
2018-11-02T12:23:17.894Z,101804.45
2018-11-02T12:25:46.848Z,101801.03
2018-11-02T12:28:16.012Z,101804.80
2018-11-02T12:30:44.981Z,101805.03
2018-11-02T12:33:13.970Z,101814.44
2018-11-02T12:35:42.963Z,101819.04
2018-11-02T12:38:11.907Z,101824.88
2018-11-02T12:40:40.854Z,101836.34
2018-11-02T12:43:09.919Z,101842.58
2018-11-02T12:45:38.873Z,101840.62
2018-11-02T12:48:08.096Z,101841.64
2018-11-02T12:50:36.935Z,101839.42
2018-11-02T12:53:06.251Z,101850.93
2018-11-02T12:55:35.200Z,101847.42
2018-11-02T12:58:04.171Z,101852.81
2018-11-02T13:00:33.156Z,101855.76
2018-11-02T13:03:02.111Z,101846.78
2018-11-02T13:05:31.131Z,101852.12
2018-11-02T13:08:02.655Z,101850.23
2018-11-02T13:10:31.630Z,101860.05
2018-11-02T13:13:00.628Z,101858.52
2018-11-02T13:15:30.494Z,101864.13
2018-11-02T13:17:59.480Z,101861.51
2018-11-02T13:20:28.390Z,101872.21
2018-11-02T13:22:57.318Z,101874.30
2018-11-02T13:25:26.302Z,101874.95
2018-11-02T13:27:55.318Z,101881.34
2018-11-02T13:30:24.473Z,101884.02
2018-11-02T13:32:53.220Z,101889.42
2018-11-02T13:35:22.245Z,101896.31
2018-11-02T13:37:53.677Z,101900.59
2018-11-02T13:40:22.618Z,101902.17
2018-11-02T13:42:51.579Z,101899.59
2018-11-02T13:45:20.441Z,101907.87
2018-11-02T13:47:51.814Z,101907.19
2018-11-02T13:50:18.511Z,101920.57
2018-11-02T13:52:47.422Z,101914.09
2018-11-02T13:55:16.412Z,101915.98
2018-11-02T13:57:45.324Z,101922.80
2018-11-02T14:00:15.868Z,101929.46
2018-11-02T14:02:44.829Z,101931.32
2018-11-02T14:05:17.031Z,101938.81
2018-11-02T14:07:46.109Z,101935.71
2018-11-02T14:10:15.185Z,101944.55
2018-11-02T14:12:44.038Z,101938.08
2018-11-02T14:15:14.248Z,101949.79
2018-11-02T14:17:43.611Z,101948.98
2018-11-02T14:20:13.389Z,101959.47
2018-11-02T14:22:42.414Z,101961.23
2018-11-02T14:25:13.113Z,101968.91
2018-11-02T14:27:42.055Z,101970.52
2018-11-02T14:30:13.006Z,101982.63
2018-11-02T14:32:42.010Z,101986.22
2018-11-02T14:35:11.062Z,101989.59
2018-11-02T14:37:40.105Z,101991.11
2018-11-02T14:40:10.020Z,101998.94
2018-11-02T14:42:39.727Z,102005.71
2018-11-02T14:45:10.710Z,102010.94
2018-11-02T14:47:39.797Z,102016.45
2018-11-02T14:50:09.381Z,102015.52
2018-11-02T14:52:38.571Z,102019.47
2018-11-02T14:55:07.777Z,102020.70
2018-11-02T14:57:36.792Z,102026.16
2018-11-02T15:00:07.285Z,102022.48
2018-11-02T15:02:36.261Z,102033.48
2018-11-02T15:05:05.516Z,102028.77
2018-11-02T15:07:34.506Z,102027.66
2018-11-02T15:10:03.491Z,102026.92
2018-11-02T15:12:32.484Z,102033.08
2018-11-02T15:15:01.556Z,102035.00
2018-11-02T15:17:30.580Z,102038.59
2018-11-02T15:19:59.627Z,102038.25
2018-11-02T15:22:28.582Z,102052.08
2018-11-02T15:24:57.857Z,102051.33
2018-11-02T15:27:26.815Z,102058.33
2018-11-02T15:29:55.839Z,102057.86
2018-11-02T15:32:24.739Z,102059.92
2018-11-02T15:34:53.679Z,102063.87
2018-11-02T15:37:22.740Z,102064.25
2018-11-02T15:39:51.718Z,102066.44
2018-11-02T15:42:20.816Z,102069.08
2018-11-02T15:44:50.569Z,102064.16
2018-11-02T15:47:21.711Z,102074.39
2018-11-02T15:49:50.679Z,102070.55
2018-11-02T15:52:19.936Z,102073.34
2018-11-02T15:54:50.864Z,102079.83
2018-11-02T15:57:19.717Z,102083.79
2018-11-02T15:59:48.857Z,102097.09
2018-11-02T16:02:17.802Z,102102.69
2018-11-02T16:04:46.894Z,102114.22
2018-11-02T16:07:15.877Z,102108.83
2018-11-02T16:09:44.821Z,102113.38
2018-11-02T16:12:13.817Z,102113.20
2018-11-02T16:14:42.811Z,102109.36
2018-11-02T16:17:11.743Z,102120.50
2018-11-02T16:19:40.785Z,102125.64
2018-11-02T16:22:09.831Z,102129.27
2018-11-02T16:24:42.796Z,102134.73
2018-11-02T16:27:11.692Z,102130.69
2018-11-02T16:29:40.680Z,102131.52
2018-11-02T16:32:12.202Z,102137.61
2018-11-02T16:34:38.793Z,102139.91
2018-11-02T16:37:07.761Z,102142.16
2018-11-02T16:39:36.807Z,102148.43
2018-11-02T16:42:07.784Z,102153.20
2018-11-02T16:44:37.567Z,102152.27
2018-11-02T16:47:04.358Z,102155.77
2018-11-02T16:49:33.651Z,102161.46
2018-11-02T16:52:04.693Z,102163.31
2018-11-02T16:54:32.158Z,102175.58
2018-11-02T16:57:01.043Z,102183.91
2018-11-02T16:59:32.938Z,102180.78
2018-11-02T17:02:03.530Z,102181.95
2018-11-02T17:04:36.810Z,102185.53
2018-11-02T17:07:07.095Z,102191.94
2018-11-02T17:09:33.168Z,102191.27
2018-11-02T17:12:02.205Z,102195.21
2018-11-02T17:14:31.284Z,102187.98
2018-11-02T17:17:02.487Z,102199.53
2018-11-02T17:19:31.338Z,102207.91
2018-11-02T17:22:02.985Z,102206.63
2018-11-02T17:24:32.001Z,102213.33
2018-11-02T17:27:00.918Z,102220.63
2018-11-02T17:29:32.905Z,102222.04
2018-11-02T17:32:01.801Z,102221.92
2018-11-02T17:34:30.745Z,102218.66
2018-11-02T17:36:59.676Z,102222.06
2018-11-02T17:39:28.650Z,102227.45
2018-11-02T17:41:57.668Z,102235.22
2018-11-02T17:44:26.581Z,102240.13
2018-11-02T17:46:57.289Z,102244.67
2018-11-02T17:49:29.422Z,102258.40
2018-11-02T17:51:59.612Z,102266.81
2018-11-02T17:54:31.974Z,102260.75
2018-11-02T17:57:02.597Z,102267.48
2018-11-02T17:59:31.658Z,102272.28
2018-11-02T18:02:00.677Z,102276.41
2018-11-02T18:04:29.630Z,102273.00
2018-11-02T18:06:58.624Z,102290.63
2018-11-02T18:09:33.592Z,102292.08
2018-11-02T18:12:02.561Z,102293.62
2018-11-02T18:14:31.645Z,102293.22
2018-11-02T18:17:00.553Z,102305.41
2018-11-02T18:19:29.488Z,102306.45
2018-11-02T18:21:58.683Z,102304.08
2018-11-02T18:24:27.678Z,102303.94
2018-11-02T18:26:56.625Z,102307.48
2018-11-02T18:29:25.631Z,102306.66
2018-11-02T18:31:54.749Z,102310.98
2018-11-02T18:34:23.758Z,102316.86
2018-11-02T18:36:52.736Z,102322.72
2018-11-02T18:39:21.757Z,102321.45
2018-11-02T18:41:50.707Z,102320.95
2018-11-02T18:44:19.631Z,102325.41
2018-11-02T18:46:48.635Z,102334.36
2018-11-02T18:49:17.584Z,102337.55
2018-11-02T18:51:46.637Z,102334.16
2018-11-02T18:54:21.186Z,102340.78
2018-11-02T18:56:50.358Z,102349.73
2018-11-02T18:59:19.313Z,102352.36
2018-11-02T19:01:48.249Z,102355.06
2018-11-02T19:04:17.291Z,102360.05
2018-11-02T19:06:46.275Z,102362.80
2018-11-02T19:09:16.250Z,102357.55
2018-11-02T19:11:45.158Z,102358.34
2018-11-02T19:14:14.225Z,102365.95
2018-11-02T19:16:43.205Z,102369.09
2018-11-02T19:19:12.165Z,102368.03
2018-11-02T19:21:41.275Z,102373.65
2018-11-02T19:24:13.565Z,102367.26
2018-11-02T19:26:42.497Z,102371.88
2018-11-02T19:29:11.460Z,102371.05
2018-11-02T19:31:40.324Z,102374.81
2018-11-02T19:34:09.674Z,102383.25
2018-11-02T19:36:38.624Z,102380.46
2018-11-02T19:39:09.099Z,102386.27
2018-11-02T19:41:41.249Z,102388.34
2018-11-02T19:44:10.314Z,102385.85
2018-11-02T19:46:39.338Z,102385.17
2018-11-02T19:49:11.152Z,102390.91
2018-11-02T19:51:39.947Z,102387.00
2018-11-02T19:54:08.943Z,102388.75
2018-11-02T19:56:40.183Z,102385.36
2018-11-02T19:59:09.226Z,102381.86
2018-11-02T20:01:40.864Z,102382.45
2018-11-02T20:04:09.923Z,102394.43
2018-11-02T20:06:38.864Z,102392.46
2018-11-02T20:09:10.495Z,102406.52
2018-11-02T20:11:39.608Z,102411.42
2018-11-02T20:14:09.173Z,102404.77
2018-11-02T20:16:38.126Z,102399.58
2018-11-02T20:19:07.170Z,102399.80
2018-11-02T20:21:36.262Z,102401.80
2018-11-02T20:24:05.338Z,102393.62
2018-11-02T20:26:34.181Z,102400.40
2018-11-02T20:29:03.172Z,102404.36
2018-11-02T20:31:32.146Z,102401.87
2018-11-02T20:34:01.155Z,102408.52
2018-11-02T20:36:31.792Z,102414.83
2018-11-02T20:39:00.839Z,102415.45
2018-11-02T20:41:29.754Z,102421.17
2018-11-02T20:43:58.915Z,102422.52
2018-11-02T20:46:27.831Z,102429.60
2018-11-02T20:48:56.945Z,102432.16
2018-11-02T20:51:25.736Z,102432.91
2018-11-02T20:53:54.703Z,102436.66
2018-11-02T20:56:23.585Z,102427.66
2018-11-02T20:58:52.533Z,102425.03
2018-11-02T21:01:21.516Z,102422.66
2018-11-02T21:03:50.444Z,102427.80
2018-11-02T21:06:19.490Z,102434.44
2018-11-02T21:08:48.772Z,102432.89
2018-11-02T21:11:17.597Z,102438.33
2018-11-02T21:13:46.557Z,102439.32
2018-11-02T21:16:15.520Z,102435.84
2018-11-02T21:18:44.531Z,102443.58
2018-11-02T21:21:13.606Z,102452.67
2018-11-02T21:23:42.544Z,102451.97
2018-11-02T21:26:11.544Z,102451.79
2018-11-02T21:28:40.602Z,102454.36
2018-11-02T21:31:09.521Z,102459.32
2018-11-02T21:33:38.430Z,102461.91
2018-11-02T21:36:07.441Z,102471.12
2018-11-02T21:38:36.547Z,102473.94
2018-11-02T21:41:05.475Z,102478.95
2018-11-02T21:43:34.388Z,102476.05
2018-11-02T21:46:03.385Z,102474.06
2018-11-02T21:48:32.350Z,102479.62
2018-11-02T21:51:02.705Z,102480.66
2018-11-02T21:53:31.683Z,102482.98
2018-11-02T21:56:00.683Z,102481.08
2018-11-02T21:58:29.774Z,102481.28
2018-11-02T22:00:58.639Z,102476.69
2018-11-02T22:03:27.592Z,102476.37
2018-11-02T22:05:57.090Z,102483.55
2018-11-02T22:08:31.527Z,102481.37
2018-11-02T22:11:05.286Z,102488.42
2018-11-02T22:13:34.815Z,102490.39
2018-11-02T22:16:01.622Z,102491.88
2018-11-02T22:18:31.029Z,102487.33
2018-11-02T22:20:59.931Z,102494.60
2018-11-02T22:23:28.946Z,102489.30
2018-11-02T22:25:58.411Z,102480.67
2018-11-02T22:28:27.442Z,102485.09
2018-11-02T22:30:56.558Z,102486.33
2018-11-02T22:33:25.738Z,102491.48
2018-11-02T22:35:56.783Z,102500.25
2018-11-02T22:38:25.985Z,102499.80
2018-11-02T22:40:54.957Z,102507.92
2018-11-02T22:43:23.905Z,102506.16
2018-11-02T22:45:57.430Z,102515.47
2018-11-02T22:48:29.908Z,102519.34
2018-11-02T22:51:00.542Z,102517.76
2018-11-02T22:53:31.303Z,102523.59
2018-11-02T22:56:01.863Z,102525.80
2018-11-02T22:58:32.441Z,102519.61
2018-11-02T23:01:23.472Z,102519.10
2018-11-02T23:04:00.347Z,102512.41
2018-11-02T23:06:28.670Z,102510.79
2018-11-02T23:08:57.577Z,102511.63
2018-11-02T23:11:28.779Z,102506.86
2018-11-02T23:13:55.491Z,102503.40
2018-11-02T23:16:24.456Z,102506.72
2018-11-02T23:18:53.458Z,102500.26
2018-11-02T23:21:22.466Z,102496.70
2018-11-02T23:23:51.423Z,102499.20
2018-11-02T23:26:20.352Z,102497.44
2018-11-02T23:28:50.997Z,102492.30
2018-11-02T23:31:18.281Z,102492.53
2018-11-02T23:33:47.238Z,102502.56
2018-11-02T23:36:16.222Z,102498.36
2018-11-02T23:38:45.166Z,102503.44
2018-11-02T23:41:14.053Z,102498.55
2018-11-02T23:43:43.048Z,102500.71
2018-11-02T23:46:11.961Z,102506.48
2018-11-02T23:48:40.952Z,102505.94
2018-11-02T23:51:10.012Z,102503.27
2018-11-02T23:53:38.994Z,102495.48
2018-11-02T23:56:07.944Z,102491.11
2018-11-02T23:58:36.929Z,102488.42
